Time;durP1;ratioP1;P1;durP2;ratioP2;P2;SDS_P1;SDS_P2;PMS_P1;PMS_P2;Temp;Humidity;BMP_temperature;BMP_pressure;BME280_temperature;BME280_humidity;BME280_pressure;Samples;Min_cycle;Max_cycle;Signal;HPM_P1;HPM_P2
2023/08/20 00:07:29;;;;;;;18.58;16.58;;;;;;;25.09;65.43;101375.97;15809688;28;20047;-54
2023/08/20 00:15:05;;;;;;;20.95;17.08;;;;;;;25.05;65.60;101377.63;15790081;28;20036;-54
2023/08/20 00:22:39;;;;;;;19.95;16.70;;;;;;;25.00;65.44;101377.69;15790373;28;20047;-49
2023/08/20 00:30:14;;;;;;;19.25;16.40;;;;;;;24.91;65.74;101391.25;15772834;28;20088;-50
2023/08/20 00:37:47;;;;;;;19.80;16.75;;;;;;;24.64;66.57;101403.56;15779999;28;20097;-53
2023/08/20 00:45:23;;;;;;;17.75;15.77;;;;;;;24.07;68.44;101402.34;15788116;28;20526;-52
2023/08/20 00:52:58;;;;;;;17.10;14.35;;;;;;;24.42;67.72;101414.19;15807237;28;20109;-51
2023/08/20 01:00:35;;;;;;;16.55;14.18;;;;;;;24.67;67.43;101415.91;15788836;28;20104;-52
2023/08/20 01:08:24;;;;;;;17.10;14.45;;;;;;;24.90;66.56;101426.13;15820674;28;20047;-51
2023/08/20 01:15:58;;;;;;;15.85;13.52;;;;;;;24.81;66.46;101427.03;15786441;28;20523;-51
2023/08/20 01:24:02;;;;;;;16.02;12.68;;;;;;;24.65;67.46;101429.91;15786505;28;20132;-50
2023/08/20 01:31:37;;;;;;;15.88;12.73;;;;;;;24.69;67.29;101435.66;15802878;28;20101;-50
2023/08/20 01:39:10;;;;;;;15.40;12.90;;;;;;;24.96;66.03;101435.13;15785824;28;20052;-55
2023/08/20 01:46:45;;;;;;;18.02;12.93;;;;;;;24.78;67.12;101453.16;15784747;28;20036;-49
2023/08/20 01:54:18;;;;;;;13.75;12.30;;;;;;;24.67;67.72;101455.16;15785221;28;20071;-48
2023/08/20 02:01:52;;;;;;;17.02;12.57;;;;;;;24.43;68.29;101456.97;15785673;28;20127;-52
2023/08/20 02:09:25;;;;;;;12.70;11.30;;;;;;;24.46;68.26;101459.16;15784866;28;20044;-52
2023/08/20 02:17:00;;;;;;;15.95;11.85;;;;;;;24.24;68.44;101469.72;15784387;28;20047;-52
2023/08/20 02:24:33;;;;;;;13.90;10.90;;;;;;;24.23;68.37;101485.34;15817504;28;20078;-52
2023/08/20 02:32:08;;;;;;;13.60;11.25;;;;;;;23.99;68.94;101476.19;15783443;28;20528;-49
2023/08/20 02:39:43;;;;;;;14.15;10.80;;;;;;;24.02;69.39;101481.09;15784229;28;20126;-50
2023/08/20 02:47:17;;;;;;;13.73;11.43;;;;;;;23.89;69.83;101480.59;15782969;28;20040;-48
2023/08/20 02:54:50;;;;;;;15.75;10.93;;;;;;;23.97;69.35;101481.97;15783102;28;20040;-52
2023/08/20 03:02:26;;;;;;;13.32;11.68;;;;;;;23.74;69.82;101510.84;15777550;28;20527;-48
2023/08/20 03:10:00;;;;;;;13.45;11.48;;;;;;;23.27;72.13;101533.09;15816796;22;20060;-54
2023/08/20 03:17:35;;;;;;;14.73;11.70;;;;;;;23.91;69.82;101525.00;15782825;28;20044;-55
2023/08/20 03:25:09;;;;;;;15.70;12.20;;;;;;;23.74;70.59;101524.56;15816685;28;20055;-55
2023/08/20 03:32:46;;;;;;;13.48;12.07;;;;;;;23.67;70.54;101519.34;15811441;28;20051;-54
2023/08/20 03:40:19;;;;;;;16.08;12.55;;;;;;;23.72;70.54;101517.69;15811392;28;20422;-54
2023/08/20 03:47:53;;;;;;;15.75;13.73;;;;;;;23.62;70.73;101526.75;15809312;28;20063;-55
2023/08/20 03:55:26;;;;;;;18.45;13.70;;;;;;;23.43;71.54;101537.47;15809738;28;20059;-54
2023/08/20 04:03:01;;;;;;;22.08;15.27;;;;;;;23.25;72.35;101536.13;15808375;28;20032;-52
2023/08/20 04:10:35;;;;;;;20.05;15.98;;;;;;;23.14;72.91;101534.50;15810309;28;20544;-52
2023/08/20 04:18:26;;;;;;;21.95;15.63;;;;;;;23.42;72.31;101552.28;15866912;28;20089;-52
2023/08/20 04:26:02;;;;;;;23.85;17.10;;;;;;;23.16;72.96;101555.03;15870898;28;20047;-54
2023/08/20 04:33:43;;;;;;;20.60;16.38;;;;;;;23.15;74.05;101544.34;15885662;27;20035;-52
2023/08/20 04:41:18;;;;;;;19.42;16.80;;;;;;;22.85;75.33;101559.66;15835990;28;20047;-53
2023/08/20 04:48:57;;;;;;;23.05;17.98;;;;;;;22.90;74.23;101556.16;15852558;28;20039;-53
2023/08/20 04:56:31;;;;;;;23.15;17.98;;;;;;;22.31;77.04;101571.03;15851896;28;20046;-52
2023/08/20 05:04:07;;;;;;;20.88;17.20;;;;;;;23.15;73.83;101564.34;15850955;28;20414;-51
2023/08/20 05:11:40;;;;;;;19.80;15.68;;;;;;;22.97;75.33;101575.84;15826629;28;20047;-53
2023/08/20 05:19:15;;;;;;;17.73;15.25;;;;;;;23.54;73.32;101585.66;15849499;28;20108;-52
2023/08/20 05:27:04;;;;;;;17.13;14.73;;;;;;;23.85;72.01;101593.88;15850773;28;20440;-52
2023/08/20 05:34:39;;;;;;;17.48;14.05;;;;;;;23.81;71.44;101573.59;15864960;28;20043;-54
2023/08/20 05:42:13;;;;;;;20.15;14.23;;;;;;;23.79;71.52;101608.69;15849181;28;20088;-52
2023/08/20 05:49:54;;;;;;;17.33;13.30;;;;;;;23.66;71.50;101618.31;15848927;28;20143;-52
2023/08/20 05:57:27;;;;;;;15.88;13.07;;;;;;;23.38;71.45;101625.97;15848275;28;20598;-52
2023/08/20 06:05:04;;;;;;;16.55;12.63;;;;;;;23.44;71.32;101626.78;15847670;28;20561;-52
2023/08/20 06:12:39;;;;;;;13.15;11.77;;;;;;;23.10;71.75;101637.47;15847285;28;20105;-52
2023/08/20 06:20:13;;;;;;;15.48;11.90;;;;;;;23.41;70.18;101619.13;15865733;28;20040;-55
2023/08/20 06:27:46;;;;;;;14.15;10.73;;;;;;;23.32;70.14;101634.47;15865793;28;20035;-53
2023/08/20 06:35:20;;;;;;;9.45;7.03;;;;;;;22.99;68.74;101603.78;15877335;28;20074;-52
2023/08/20 06:42:54;;;;;;;7.40;5.95;;;;;;;23.19;65.87;101667.88;15873305;28;20040;-51
2023/08/20 06:50:28;;;;;;;7.10;4.78;;;;;;;23.08;65.09;101677.97;15860852;28;20664;-53
2023/08/20 06:58:02;;;;;;;7.38;4.60;;;;;;;23.52;63.62;101688.47;15861171;28;20051;-51
2023/08/20 07:05:36;;;;;;;5.45;3.22;;;;;;;23.11;61.16;101680.19;15879600;28;20100;-52
2023/08/20 07:13:10;;;;;;;8.23;2.88;;;;;;;23.37;62.37;101695.56;15862449;28;20127;-52
2023/08/20 07:20:46;;;;;;;4.35;2.60;;;;;;;23.16;61.57;101694.72;15858071;28;20396;-51
2023/08/20 07:28:26;;;;;;;4.30;2.58;;;;;;;23.57;60.77;101704.91;15874987;28;20135;-54
2023/08/20 07:36:00;;;;;;;4.00;2.03;;;;;;;24.17;56.64;101706.78;15856719;28;20073;-54
2023/08/20 07:43:33;;;;;;;3.33;2.15;;;;;;;24.81;55.07;101712.63;15856369;28;20054;-53
2023/08/20 07:51:08;;;;;;;6.35;1.98;;;;;;;24.67;54.62;101720.66;15856585;28;20051;-53
2023/08/20 07:58:41;;;;;;;3.88;1.73;;;;;;;25.21;53.67;101710.78;15873473;27;20046;-53
2023/08/20 08:06:17;;;;;;;2.00;1.63;;;;;;;25.61;51.19;101712.41;15873797;28;20039;-55
2023/08/20 08:13:50;;;;;;;3.10;1.98;;;;;;;25.63;51.94;101713.75;15867220;28;20514;-52
2023/08/20 08:21:24;;;;;;;3.67;1.85;;;;;;;25.97;51.84;101720.34;15873262;28;20048;-54
2023/08/20 08:28:57;;;;;;;2.30;1.60;;;;;;;26.05;51.49;101726.03;15855515;28;20031;-53
2023/08/20 08:36:34;;;;;;;2.85;1.77;;;;;;;26.53;50.27;101723.31;15854886;28;20044;-52
2023/08/20 08:44:10;;;;;;;4.03;1.77;;;;;;;26.78;49.98;101735.16;15872988;28;20092;-53
2023/08/20 08:51:46;;;;;;;3.05;1.90;;;;;;;26.86;50.91;101728.97;15855131;28;20084;-53
2023/08/20 08:59:19;;;;;;;2.60;1.73;;;;;;;26.44;51.06;101720.44;15872319;28;20048;-55
2023/08/20 09:06:57;;;;;;;3.92;2.10;;;;;;;26.74;51.77;101720.34;15854494;28;20484;-56
2023/08/20 09:14:32;;;;;;;3.63;2.17;;;;;;;26.94;50.00;101707.09;15880284;27;20039;-55
2023/08/20 09:22:06;;;;;;;3.67;1.90;;;;;;;27.71;49.36;101705.94;15868472;28;20048;-53
2023/08/20 09:29:48;;;;;;;5.15;2.03;;;;;;;28.23;45.47;101710.25;15883915;27;20116;-52
2023/08/20 09:37:25;;;;;;;3.88;2.20;;;;;;;28.14;48.47;101695.50;15850229;28;20036;-53
2023/08/20 09:45:00;;;;;;;5.10;2.25;;;;;;;28.98;46.20;101675.81;15868224;28;20048;-55
2023/08/20 09:52:47;;;;;;;;;;;;;;;27.83;46.31;101711.81;15866355;28;20070;-51
2023/08/20 10:00:21;;;;;;;;;;;;;;;29.65;46.53;101702.69;15870968;28;20371;-53
2023/08/20 10:07:56;;;;;;;3.55;2.10;;;;;;;30.05;45.79;101707.47;15866240;28;20014;-50
2023/08/20 10:15:31;;;;;;;4.53;2.28;;;;;;;29.94;45.13;101702.22;15831508;28;20040;-53
2023/08/20 10:23:05;;;;;;;3.33;2.30;;;;;;;29.73;44.65;101695.59;15866152;28;20522;-52
2023/08/20 10:30:38;;;;;;;2.72;2.35;;;;;;;30.07;43.49;101692.16;15881899;28;20130;-55
2023/08/20 10:38:16;;;;;;;2.95;2.20;;;;;;;29.95;41.92;101683.66;15849249;28;20122;-50
2023/08/20 10:46:03;;;;;;;4.15;2.10;;;;;;;30.58;40.64;101678.84;15847217;28;20047;-50
2023/08/20 10:53:38;;;;;;;3.55;2.33;;;;;;;31.14;42.11;101680.69;15865645;28;20602;-51
2023/08/20 11:01:16;;;;;;;3.85;2.00;;;;;;;31.85;42.29;101685.03;15865663;28;20399;-54
2023/08/20 11:08:51;;;;;;;4.43;2.13;;;;;;;30.49;41.59;101692.66;15865381;28;20052;-50
2023/08/20 11:16:24;;;;;;;4.30;2.20;;;;;;;30.78;40.46;101688.50;15858799;28;20039;-53
2023/08/20 11:23:58;;;;;;;4.88;2.10;;;;;;;31.69;42.43;101691.09;15891690;27;20040;-50
2023/08/20 11:31:31;;;;;;;4.03;2.03;;;;;;;31.19;42.93;101697.16;15857332;28;20051;-53
2023/08/20 11:39:07;;;;;;;6.32;2.15;;;;;;;31.76;42.11;101693.38;15857729;28;20035;-51
2023/08/20 11:46:45;;;;;;;4.03;1.60;;;;;;;32.14;40.84;101693.44;15875055;28;20031;-51
2023/08/20 11:54:20;;;;;;;2.90;1.80;;;;;;;32.16;40.02;101690.31;15890253;27;20052;-52
2023/08/20 12:01:57;;;;;;;3.83;1.67;;;;;;;31.87;39.52;101691.09;15873703;27;20043;-51
2023/08/20 12:09:32;;;;;;;2.45;1.42;;;;;;;31.81;38.21;101690.41;15875065;28;20047;-51
2023/08/20 12:17:05;;;;;;;3.60;1.20;;;;;;;31.50;38.25;101685.09;15832340;28;20058;-53
2023/08/20 12:24:41;;;;;;;2.65;1.10;;;;;;;33.20;38.04;101676.56;15856247;28;20127;-53
2023/08/20 12:32:15;;;;;;;2.13;1.25;;;;;;;31.55;36.84;101684.13;15873792;28;20051;-51
2023/08/20 12:39:50;;;;;;;3.72;1.40;;;;;;;31.54;38.79;101682.50;15878017;28;20050;-55
2023/08/20 12:47:23;;;;;;;1.92;1.25;;;;;;;32.93;34.92;101682.69;15883806;28;20043;-53
2023/08/20 12:54:57;;;;;;;2.65;1.30;;;;;;;33.04;36.24;101672.78;15886152;28;20074;-52
2023/08/20 13:02:31;;;;;;;2.95;1.50;;;;;;;31.62;35.01;101676.94;15867042;28;20093;-52
2023/08/20 13:10:09;;;;;;;4.05;1.27;;;;;;;31.32;36.62;101656.56;15879386;28;20048;-53
2023/08/20 13:17:52;;;;;;;2.05;1.23;;;;;;;30.94;36.79;101656.41;15860055;28;20043;-51
2023/08/20 13:25:38;;;;;;;3.00;1.02;;;;;;;32.08;35.35;101655.84;15870767;28;20043;-54
2023/08/20 13:33:15;;;;;;;4.93;1.42;;;;;;;31.89;36.06;101661.00;15852605;28;20047;-53
2023/08/20 13:40:51;;;;;;;4.90;1.60;;;;;;;31.52;36.73;101666.16;15868173;28;20052;-54
2023/08/20 13:48:25;;;;;;;2.92;1.58;;;;;;;30.59;38.89;101664.69;15867614;28;20449;-52
2023/08/20 13:56:00;;;;;;;3.20;1.70;;;;;;;30.88;37.47;101658.53;15867239;28;20056;-51
2023/08/20 14:03:35;;;;;;;3.30;1.60;;;;;;;31.00;38.53;101655.09;15866348;28;20052;-52
2023/08/20 14:11:10;;;;;;;3.88;1.63;;;;;;;30.51;39.15;101653.56;15847695;28;20043;-50
2023/08/20 14:18:43;;;;;;;4.82;1.75;;;;;;;30.96;38.43;101652.19;15866103;28;20043;-51
2023/08/20 14:26:18;;;;;;;5.20;1.92;;;;;;;30.94;38.52;101642.53;15848671;28;20035;-52
2023/08/20 14:33:51;;;;;;;3.67;1.40;;;;;;;30.23;36.33;101645.53;15847831;28;20596;-53
2023/08/20 14:41:25;;;;;;;4.43;1.50;;;;;;;29.78;38.50;101645.63;15865834;28;20046;-50
2023/08/20 14:48:58;;;;;;;4.45;1.48;;;;;;;30.04;37.18;101631.09;15829877;28;20061;-52
2023/08/20 14:56:33;;;;;;;2.63;1.20;;;;;;;30.42;37.09;101628.63;15873232;28;20396;-51
2023/08/20 15:04:09;;;;;;;3.17;1.17;;;;;;;30.19;38.33;101622.38;15877110;28;20048;-51
2023/08/20 15:11:43;;;;;;;3.67;1.38;;;;;;;29.58;38.32;101635.13;15853629;28;20396;-56
2023/08/20 15:19:17;;;;;;;5.13;1.70;;;;;;;29.89;38.28;101632.31;15894190;27;20135;-53
2023/08/20 15:26:52;;;;;;;4.07;1.50;;;;;;;29.77;38.14;101627.41;15877285;28;20052;-54
2023/08/20 15:34:28;;;;;;;5.88;1.52;;;;;;;29.18;38.84;101629.47;15841055;28;20044;-54
2023/08/20 15:42:03;;;;;;;2.90;1.20;;;;;;;29.30;38.74;101626.13;15874851;28;20610;-54
2023/08/20 15:49:39;;;;;;;3.35;1.38;;;;;;;29.58;39.65;101622.09;15856761;28;20044;-54
2023/08/20 15:57:19;;;;;;;5.30;1.65;;;;;;;29.42;40.56;101623.59;15855721;28;20040;-54
2023/08/20 16:04:52;;;;;;;4.70;1.20;;;;;;;29.08;38.87;101619.47;15854472;28;20054;-57
2023/08/20 16:12:27;;;;;;;4.35;1.50;;;;;;;29.08;40.57;101616.69;15872367;28;20055;-56
2023/08/20 16:20:00;;;;;;;2.67;1.60;;;;;;;28.95;39.28;101618.38;15872882;28;20044;-57
2023/08/20 16:27:36;;;;;;;3.92;1.50;;;;;;;28.87;40.99;101626.59;15854524;28;20107;-54
2023/08/20 16:35:10;;;;;;;4.50;1.52;;;;;;;28.27;40.63;101627.63;15872179;28;20098;-54
2023/08/20 16:42:45;;;;;;;4.63;1.52;;;;;;;28.31;40.19;101631.41;15871865;28;20051;-54
2023/08/20 16:50:18;;;;;;;5.38;1.77;;;;;;;28.44;40.75;101625.03;15836193;28;20078;-57
2023/08/20 16:57:54;;;;;;;7.88;1.80;;;;;;;28.18;41.80;101630.28;15852187;28;20128;-53
2023/08/20 17:05:27;;;;;;;5.13;1.63;;;;;;;28.15;39.88;101635.59;15851760;28;20047;-55
2023/08/20 17:13:01;;;;;;;3.45;1.50;;;;;;;28.16;40.56;101632.50;15845825;28;20415;-57
2023/08/20 17:20:36;;;;;;;4.47;1.60;;;;;;;27.86;41.99;101638.66;15883623;27;20415;-55
2023/08/20 17:28:11;;;;;;;3.00;1.33;;;;;;;27.96;42.00;101647.53;15868185;28;20043;-57
2023/08/20 17:35:44;;;;;;;4.90;1.50;;;;;;;27.98;43.13;101650.03;15849789;28;20047;-56
2023/08/20 17:43:19;;;;;;;3.22;1.55;;;;;;;27.86;42.77;101645.00;15849472;28;20050;-53
2023/08/20 17:50:53;;;;;;;3.78;1.50;;;;;;;27.62;43.66;101655.34;15868106;28;20039;-55
2023/08/20 17:58:27;;;;;;;4.95;1.70;;;;;;;27.38;44.50;101645.28;15866828;28;20047;-55
2023/08/20 18:06:06;;;;;;;5.10;1.65;;;;;;;27.06;45.80;101656.25;15866328;28;20070;-57
2023/08/20 18:13:41;;;;;;;6.10;1.33;;;;;;;26.98;46.55;101666.00;15865763;28;20514;-55
2023/08/20 18:21:15;;;;;;;3.03;1.40;;;;;;;26.67;48.56;101669.19;15866450;28;20048;-53
2023/08/20 18:28:49;;;;;;;2.83;1.50;;;;;;;26.61;47.23;101681.38;15872263;28;20102;-56
2023/08/20 18:36:22;;;;;;;2.92;1.42;;;;;;;26.37;48.68;101689.63;15894437;27;20510;-57
2023/08/20 18:43:56;;;;;;;5.80;1.92;;;;;;;26.34;49.48;101701.22;15878124;28;20048;-57
2023/08/20 18:51:30;;;;;;;4.95;1.80;;;;;;;26.18;49.59;101711.59;15878587;28;20040;-56
2023/08/20 18:59:04;;;;;;;4.75;2.15;;;;;;;25.99;50.59;101718.13;15846132;28;20523;-57
2023/08/20 19:06:37;;;;;;;3.05;1.63;;;;;;;25.90;50.28;101720.69;15878055;28;20040;-53
2023/08/20 19:14:12;;;;;;;5.80;2.40;;;;;;;25.84;50.19;101725.44;15853127;28;20039;-52
2023/08/20 19:21:45;;;;;;;4.32;2.00;;;;;;;25.53;51.46;101722.06;15876478;28;20032;-54
2023/08/20 19:29:22;;;;;;;4.53;1.90;;;;;;;25.55;51.40;101719.03;15857722;28;20047;-56
2023/08/20 19:36:55;;;;;;;5.45;2.00;;;;;;;25.37;52.78;101726.88;15874768;28;20044;-52
2023/08/20 19:44:30;;;;;;;4.57;1.90;;;;;;;25.31;53.55;101719.75;15873562;28;20044;-57
2023/08/20 19:52:03;;;;;;;3.72;1.60;;;;;;;25.10;55.48;101734.75;15874245;28;20504;-56
2023/08/20 19:59:38;;;;;;;4.50;2.05;;;;;;;24.97;54.57;101725.16;15856351;28;20059;-56
2023/08/20 20:07:11;;;;;;;3.50;2.10;;;;;;;24.90;53.81;101733.72;15855925;28;20039;-56
2023/08/20 20:14:46;;;;;;;7.88;4.40;;;;;;;24.56;55.28;101739.06;15854875;28;20435;-55
2023/08/20 20:22:20;;;;;;;7.55;2.47;;;;;;;24.56;54.65;101728.09;15855109;28;20168;-53
2023/08/20 20:29:54;;;;;;;4.53;2.30;;;;;;;24.46;56.02;101730.88;15854036;28;20047;-52
2023/08/20 20:37:27;;;;;;;7.70;3.55;;;;;;;24.23;57.01;101740.50;15852891;28;20112;-53
2023/08/20 20:45:02;;;;;;;6.60;3.10;;;;;;;24.17;57.81;101741.63;15870522;28;20036;-57
2023/08/20 20:52:35;;;;;;;4.35;2.90;;;;;;;24.03;57.80;101737.81;15885779;27;20051;-55
2023/08/20 21:00:10;;;;;;;6.25;3.08;;;;;;;23.71;59.56;101724.38;15869857;28;20040;-57
2023/08/20 21:07:44;;;;;;;10.57;3.53;;;;;;;23.70;59.22;101733.72;15869527;28;20104;-56
2023/08/20 21:15:18;;;;;;;7.88;3.00;;;;;;;23.70;59.74;101726.31;15738066;22;20045;-48
2023/08/20 21:22:54;;;;;;;6.97;3.15;;;;;;;23.61;59.92;101725.19;15662769;28;20045;-48
2023/08/20 21:30:28;;;;;;;9.73;3.40;;;;;;;23.73;60.16;101744.13;15680437;28;20055;-49
2023/08/20 21:38:01;;;;;;;6.82;3.30;;;;;;;23.24;61.30;101739.94;15679643;28;20502;-51
2023/08/20 21:45:36;;;;;;;8.20;3.85;;;;;;;23.40;61.21;101757.22;15679160;28;20132;-48
2023/08/20 21:53:09;;;;;;;5.88;3.10;;;;;;;23.47;60.90;101756.97;15678287;28;20068;-48
2023/08/20 22:00:43;;;;;;;6.72;3.35;;;;;;;23.38;60.57;101767.63;15677562;28;20051;-49
2023/08/20 22:08:17;;;;;;;6.32;3.33;;;;;;;23.41;60.92;101765.19;15659984;28;20505;-48
2023/08/20 22:15:51;;;;;;;8.65;3.88;;;;;;;23.43;61.42;101775.88;15659905;28;20037;-48
2023/08/20 22:23:24;;;;;;;8.35;3.28;;;;;;;23.38;61.87;101778.59;15660065;28;20049;-48
2023/08/20 22:31:03;;;;;;;4.93;3.05;;;;;;;23.16;62.43;101760.44;15677291;28;20049;-48
2023/08/20 22:38:36;;;;;;;6.28;3.50;;;;;;;23.30;62.09;101776.38;15659066;28;20509;-48
2023/08/20 22:46:10;;;;;;;5.07;3.30;;;;;;;23.28;62.05;101782.13;15676764;28;20110;-51
2023/08/20 22:53:43;;;;;;;7.53;3.88;;;;;;;23.21;62.02;101780.72;15676290;28;20475;-50
2023/08/20 23:01:17;;;;;;;7.05;3.63;;;;;;;23.15;62.23;101775.25;15676279;28;20049;-48
2023/08/20 23:08:54;;;;;;;7.40;4.38;;;;;;;23.11;61.96;101778.78;15658235;28;20048;-48
2023/08/20 23:16:28;;;;;;;10.63;4.65;;;;;;;23.11;61.23;101776.06;15635263;28;20047;-48
2023/08/20 23:24:02;;;;;;;11.23;5.47;;;;;;;22.97;61.23;101773.00;15625824;28;20049;-51
2023/08/20 23:31:36;;;;;;;11.00;5.50;;;;;;;23.15;60.70;101761.56;15625949;28;20046;-48
2023/08/20 23:39:09;;;;;;;10.23;5.53;;;;;;;23.01;60.87;101754.94;15607207;28;20041;-48
2023/08/20 23:46:45;;;;;;;11.93;6.72;;;;;;;22.79;62.33;101757.81;15606663;28;20076;-49
2023/08/20 23:54:18;;;;;;;10.65;7.18;;;;;;;22.88;62.44;101760.88;15623546;28;20050;-48
